Time;durP1;ratioP1;P1;durP2;ratioP2;P2;SDS_P1;SDS_P2;PMS_P1;PMS_P2;Temp;Humidity;BMP_temperature;BMP_pressure;BME280_temperature;BME280_humidity;BME280_pressure;Samples;Min_cycle;Max_cycle;Signal;HPM_P1;HPM_P2
2022/06/19 00:02:48;;;;;;;3.40;2.30;;;;;;;;;;5052744;28;20195;-84
2022/06/19 00:05:53;;;;;;;6.57;2.10;;;;;;;;;;5052921;28;20199;-85
2022/06/19 00:08:58;;;;;;;7.43;2.13;;;;;;;;;;5065067;28;20175;-85
2022/06/19 00:12:01;;;;;;;4.07;2.07;;;;;;;;;;5045602;28;20176;-84
2022/06/19 00:15:06;;;;;;;5.67;1.83;;;;;;;;;;5046632;28;20196;-84
2022/06/19 00:18:11;;;;;;;3.23;2.00;;;;;;;;;;5044817;28;20196;-84
2022/06/19 00:21:16;;;;;;;2.67;1.73;;;;;;;;;;5033336;28;20591;-84
2022/06/19 00:24:20;;;;;;;5.23;2.13;;;;;;;;;;5056335;28;20524;-84
2022/06/19 00:27:25;;;;;;;6.50;2.10;;;;;;;;;;5033602;28;20532;-84
2022/06/19 00:30:28;;;;;;;5.63;2.27;;;;;;;;;;5056395;28;20220;-84
2022/06/19 00:33:32;;;;;;;4.40;2.10;;;;;;;;;;5044534;28;20179;-85
2022/06/19 00:36:36;;;;;;;5.73;2.23;;;;;;;;;;5046659;28;20176;-83
2022/06/19 00:39:42;;;;;;;7.37;2.40;;;;;;;;;;5046167;28;20567;-83
2022/06/19 00:42:46;;;;;;;7.30;2.03;;;;;;;;;;5046015;28;20176;-83
2022/06/19 00:45:52;;;;;;;3.77;2.20;;;;;;;;;;5046331;28;20520;-82
2022/06/19 00:48:57;;;;;;;5.97;2.30;;;;;;;;;;5059156;28;20188;-84
2022/06/19 00:52:16;;;;;;;3.83;2.20;;;;;;;;;;5056557;28;20200;-84
2022/06/19 00:55:24;;;;;;;5.33;2.43;;;;;;;;;;5044995;28;20195;-83
2022/06/19 00:58:38;;;;;;;8.40;2.97;;;;;;;;;;5066294;28;20179;-83
2022/06/19 01:01:43;;;;;;;4.63;2.50;;;;;;;;;;5054617;28;20184;-82
2022/06/19 01:04:51;;;;;;;5.37;2.80;;;;;;;;;;5065256;28;20176;-82
2022/06/19 01:07:58;;;;;;;5.37;2.60;;;;;;;;;;5066471;28;20208;-82
2022/06/19 01:11:03;;;;;;;7.00;2.30;;;;;;;;;;5055210;28;20215;-82
2022/06/19 01:14:10;;;;;;;6.67;2.60;;;;;;;;;;5045144;28;20531;-84
2022/06/19 01:17:16;;;;;;;6.53;2.43;;;;;;;;;;5044765;28;20184;-84
2022/06/19 01:20:23;;;;;;;5.87;2.33;;;;;;;;;;5045902;28;20223;-83
2022/06/19 01:23:40;;;;;;;4.27;2.27;;;;;;;;;;5057372;28;20204;-82
2022/06/19 01:26:47;;;;;;;7.90;2.50;;;;;;;;;;5045420;28;20678;-84
2022/06/19 01:29:51;;;;;;;5.20;2.47;;;;;;;;;;5045731;28;20220;-83
2022/06/19 01:32:58;;;;;;;9.10;2.70;;;;;;;;;;5044957;28;20184;-82
2022/06/19 01:36:04;;;;;;;6.03;2.43;;;;;;;;;;5053836;28;20192;-83
2022/06/19 01:39:08;;;;;;;3.93;2.20;;;;;;;;;;5055147;28;20183;-83
2022/06/19 01:42:13;;;;;;;4.43;2.40;;;;;;;;;;5062422;28;20183;-84
2022/06/19 01:45:17;;;;;;;8.53;2.53;;;;;;;;;;5033087;28;20185;-84
2022/06/19 01:48:24;;;;;;;7.63;2.77;;;;;;;;;;5033479;28;20208;-83
2022/06/19 01:51:28;;;;;;;9.57;3.20;;;;;;;;;;5045376;28;20220;-84
2022/06/19 01:54:37;;;;;;;6.23;2.40;;;;;;;;;;5044631;28;20180;-82
2022/06/19 01:57:51;;;;;;;4.80;2.20;;;;;;;;;;5045760;28;20180;-82
2022/06/19 02:00:56;;;;;;;4.80;2.50;;;;;;;;;;5033283;28;20220;-84
2022/06/19 02:04:01;;;;;;;7.67;2.37;;;;;;;;;;5044429;28;20180;-83
2022/06/19 02:07:10;;;;;;;6.67;2.60;;;;;;;;;;5044070;28;20208;-83
2022/06/19 02:10:14;;;;;;;5.80;2.63;;;;;;;;;;5044253;28;20559;-83
2022/06/19 02:13:20;;;;;;;6.73;2.57;;;;;;;;;;5054163;28;20196;-83
2022/06/19 02:16:25;;;;;;;7.30;2.73;;;;;;;;;;5043763;28;20204;-83
2022/06/19 02:19:33;;;;;;;5.20;2.77;;;;;;;;;;5056288;22;20216;31
2022/06/19 02:22:38;;;;;;;5.07;2.73;;;;;;;;;;4987296;28;20215;-85
2022/06/19 02:25:44;;;;;;;5.40;2.70;;;;;;;;;;4977491;28;20206;-85
2022/06/19 02:28:50;;;;;;;7.53;2.50;;;;;;;;;;4981556;28;20218;-85
2022/06/19 02:31:55;;;;;;;4.77;2.47;;;;;;;;;;4947465;29;20184;-85
2022/06/19 02:34:59;;;;;;;5.87;2.13;;;;;;;;;;4946863;29;20175;-85
2022/06/19 02:38:06;;;;;;;10.07;2.90;;;;;;;;;;4936845;29;20179;-85
2022/06/19 02:41:18;;;;;;;9.73;2.47;;;;;;;;;;4947070;29;20563;-85
2022/06/19 02:44:31;;;;;;;3.90;2.40;;;;;;;;;;4935416;29;20195;-85
2022/06/19 02:47:36;;;;;;;8.17;2.50;;;;;;;;;;4968294;28;20575;-85
2022/06/19 02:50:42;;;;;;;7.63;2.60;;;;;;;;;;4956971;28;20689;-84
2022/06/19 02:53:46;;;;;;;5.97;2.53;;;;;;;;;;4945889;29;20195;-84
2022/06/19 02:56:50;;;;;;;5.77;2.43;;;;;;;;;;4956604;29;20184;-84
2022/06/19 02:59:54;;;;;;;8.57;2.40;;;;;;;;;;4956906;28;20214;-85
2022/06/19 03:03:04;;;;;;;9.77;2.87;;;;;;;;;;4968186;28;20180;-85
2022/06/19 03:06:08;;;;;;;4.73;2.20;;;;;;;;;;4967299;28;20528;-85
2022/06/19 03:09:12;;;;;;;5.43;2.40;;;;;;;;;;4957026;29;20179;-84
2022/06/19 03:12:16;;;;;;;10.20;2.60;;;;;;;;;;4946603;29;20184;-84
2022/06/19 03:15:20;;;;;;;7.70;2.83;;;;;;;;;;4958060;29;20195;-84
2022/06/19 03:18:24;;;;;;;4.47;2.50;;;;;;;;;;4969334;28;20180;-85
2022/06/19 03:21:29;;;;;;;6.20;2.80;;;;;;;;;;4969112;28;20234;-84
2022/06/19 03:24:33;;;;;;;5.33;2.60;;;;;;;;;;4958353;29;20184;-84
2022/06/19 03:27:37;;;;;;;8.70;2.90;;;;;;;;;;4959527;29;20211;-84
2022/06/19 03:30:41;;;;;;;6.83;2.60;;;;;;;;;;4936550;29;20231;-84
2022/06/19 03:33:46;;;;;;;5.07;2.40;;;;;;;;;;4956819;29;20184;-84
2022/06/19 03:36:51;;;;;;;6.73;2.70;;;;;;;;;;4957338;29;20183;-84
2022/06/19 03:39:55;;;;;;;3.37;2.17;;;;;;;;;;4935023;28;20219;-84
2022/06/19 03:42:59;;;;;;;7.63;2.67;;;;;;;;;;4968136;28;20184;-84
2022/06/19 03:46:14;;;;;;;4.07;2.80;;;;;;;;;;4967469;28;20203;-84
2022/06/19 03:49:19;;;;;;;3.83;2.37;;;;;;;;;;4956905;29;20643;-85
2022/06/19 03:52:23;;;;;;;9.17;3.23;;;;;;;;;;4945832;29;20192;-85
2022/06/19 03:55:27;;;;;;;6.97;2.57;;;;;;;;;;4934611;29;20544;-85
2022/06/19 03:58:46;;;;;;;7.00;2.40;;;;;;;;;;4967440;28;20180;-85
2022/06/19 04:01:50;;;;;;;8.77;2.53;;;;;;;;;;4956898;29;20219;-85
2022/06/19 04:04:55;;;;;;;11.23;3.23;;;;;;;;;;4956803;29;20183;-84
2022/06/19 04:08:00;;;;;;;4.73;2.60;;;;;;;;;;4946050;29;20199;-85
2022/06/19 04:11:05;;;;;;;5.60;2.93;;;;;;;;;;4967461;28;20223;-85
2022/06/19 04:14:15;;;;;;;6.50;2.53;;;;;;;;;;4955760;29;20531;-85
2022/06/19 04:17:19;;;;;;;5.97;2.93;;;;;;;;;;4956846;29;20227;-85
2022/06/19 04:20:23;;;;;;;6.40;2.90;;;;;;;;;;4956100;28;20226;-84
2022/06/19 04:23:28;;;;;;;6.03;2.87;;;;;;;;;;4957272;29;20527;-85
2022/06/19 04:26:34;;;;;;;3.83;2.33;;;;;;;;;;4968775;28;20540;-84
2022/06/19 04:29:39;;;;;;;5.73;2.50;;;;;;;;;;4968253;28;20187;-85
2022/06/19 04:32:42;;;;;;;8.00;2.20;;;;;;;;;;4968033;28;20188;-84
2022/06/19 04:35:48;;;;;;;6.77;2.93;;;;;;;;;;4940500;29;20184;-84
2022/06/19 04:38:55;;;;;;;4.23;2.67;;;;;;;;;;4971074;28;20188;-84
2022/06/19 04:41:59;;;;;;;7.47;2.80;;;;;;;;;;4971634;28;20175;-84
2022/06/19 04:45:04;;;;;;;5.10;2.70;;;;;;;;;;4937681;29;20188;-84
2022/06/19 04:48:09;;;;;;;6.37;2.53;;;;;;;;;;4959724;29;20544;-84
2022/06/19 04:51:14;;;;;;;4.60;2.50;;;;;;;;;;4948597;29;20223;-84
2022/06/19 04:54:18;;;;;;;4.77;2.80;;;;;;;;;;4948082;29;20203;-84
2022/06/19 04:57:22;;;;;;;3.80;2.63;;;;;;;;;;4969494;28;20207;-84
2022/06/19 05:00:27;;;;;;;6.30;2.43;;;;;;;;;;4939542;29;20219;-84
2022/06/19 05:03:31;;;;;;;5.03;2.80;;;;;;;;;;4949850;29;20200;-84
2022/06/19 05:06:35;;;;;;;5.90;2.77;;;;;;;;;;4928320;29;20533;-84
2022/06/19 05:09:39;;;;;;;3.93;2.53;;;;;;;;;;4958124;28;20207;-83
2022/06/19 05:12:43;;;;;;;3.60;2.60;;;;;;;;;;4947033;29;20187;-84
2022/06/19 05:15:49;;;;;;;6.63;2.60;;;;;;;;;;4958499;29;20187;-84
2022/06/19 05:18:55;;;;;;;8.83;2.67;;;;;;;;;;4946656;29;20654;-84
2022/06/19 05:22:00;;;;;;;6.47;2.83;;;;;;;;;;4936316;29;20184;-84
2022/06/19 05:25:08;;;;;;;8.27;3.13;;;;;;;;;;4958206;29;20500;-84
2022/06/19 05:28:12;;;;;;;4.30;2.40;;;;;;;;;;4947030;29;20203;-84
2022/06/19 05:31:17;;;;;;;7.90;2.50;;;;;;;;;;4946705;29;20222;-84
2022/06/19 05:34:21;;;;;;;6.67;2.70;;;;;;;;;;4947366;29;20199;-82
2022/06/19 05:37:26;;;;;;;4.73;2.60;;;;;;;;;;4936150;29;20207;-84
2022/06/19 05:40:30;;;;;;;6.20;2.83;;;;;;;;;;4957456;28;20227;-84
2022/06/19 05:43:35;;;;;;;8.23;2.87;;;;;;;;;;4957836;29;20187;-83
2022/06/19 05:46:39;;;;;;;6.77;2.83;;;;;;;;;;4946157;28;20196;-83
2022/06/19 05:49:43;;;;;;;6.93;3.17;;;;;;;;;;4946043;28;20223;-83
2022/06/19 05:52:47;;;;;;;7.93;3.00;;;;;;;;;;4946364;29;20674;-83
2022/06/19 05:55:51;;;;;;;10.07;2.77;;;;;;;;;;4946277;29;20184;-83
2022/06/19 05:58:56;;;;;;;12.80;3.17;;;;;;;;;;4957018;29;20183;-83
2022/06/19 06:02:00;;;;;;;7.07;2.90;;;;;;;;;;4957081;29;20184;-88
2022/06/19 06:05:04;;;;;;;9.20;2.83;;;;;;;;;;4945475;29;20642;-85
2022/06/19 06:08:10;;;;;;;13.43;3.10;;;;;;;;;;4955370;29;20211;-85
2022/06/19 06:11:15;;;;;;;9.03;2.73;;;;;;;;;;4945101;29;20606;-84
2022/06/19 06:14:19;;;;;;;10.53;2.70;;;;;;;;;;4952552;29;20188;-85
2022/06/19 06:17:23;;;;;;;8.07;2.90;;;;;;;;;;4943403;29;20544;-84
2022/06/19 06:20:28;;;;;;;13.60;2.87;;;;;;;;;;4969813;28;20235;-84
2022/06/19 06:23:32;;;;;;;9.60;2.97;;;;;;;;;;4945157;29;20204;-84
2022/06/19 06:26:36;;;;;;;15.00;3.97;;;;;;;;;;4956351;29;20180;-84
2022/06/19 06:29:41;;;;;;;10.43;3.17;;;;;;;;;;4945669;28;20225;-84
2022/06/19 06:32:45;;;;;;;12.13;3.40;;;;;;;;;;4933916;29;21008;-84
2022/06/19 06:35:49;;;;;;;11.60;3.30;;;;;;;;;;4956275;29;20181;-84
2022/06/19 06:38:54;;;;;;;11.30;3.17;;;;;;;;;;4967940;28;20173;-84
2022/06/19 06:41:58;;;;;;;11.30;3.40;;;;;;;;;;4955924;29;20193;-84
2022/06/19 06:45:03;;;;;;;16.07;3.47;;;;;;;;;;4966841;28;20192;-84
2022/06/19 06:48:08;;;;;;;11.03;3.37;;;;;;;;;;4956329;29;20208;-84
2022/06/19 06:51:13;;;;;;;18.27;3.97;;;;;;;;;;4944426;29;20224;-84
2022/06/19 06:54:17;;;;;;;9.97;3.00;;;;;;;;;;4955264;29;20564;-84
2022/06/19 06:57:21;;;;;;;11.47;3.37;;;;;;;;;;4955191;29;20197;-84
2022/06/19 07:00:26;;;;;;;11.27;3.27;;;;;;;;;;4943381;28;20211;-84
2022/06/19 07:03:29;;;;;;;9.80;3.40;;;;;;;;;;4955152;29;20542;-84
2022/06/19 07:06:34;;;;;;;18.33;4.20;;;;;;;;;;4933203;29;20190;-84
2022/06/19 07:09:38;;;;;;;14.33;3.40;;;;;;;;;;4944192;28;20221;-84
2022/06/19 07:12:42;;;;;;;11.57;3.20;;;;;;;;;;4943894;29;20207;-84
2022/06/19 07:15:46;;;;;;;11.97;3.67;;;;;;;;;;4943740;29;20188;-84
2022/06/19 07:18:52;;;;;;;14.03;3.50;;;;;;;;;;4954687;29;20194;-84
2022/06/19 07:21:55;;;;;;;12.63;3.50;;;;;;;;;;4965239;28;20202;-84
2022/06/19 07:25:01;;;;;;;15.73;3.70;;;;;;;;;;4944161;29;20177;-85
2022/06/19 07:28:06;;;;;;;19.52;3.58;;;;;;;;;;4954354;29;20189;-84
2022/06/19 07:31:10;;;;;;;18.40;3.47;;;;;;;;;;4943422;29;20223;-84
2022/06/19 07:34:15;;;;;;;13.85;3.90;;;;;;;;;;4954693;29;20543;-85
2022/06/19 07:37:19;;;;;;;17.25;3.58;;;;;;;;;;4953958;29;20200;-84
2022/06/19 07:40:23;;;;;;;12.30;3.67;;;;;;;;;;4943692;28;20559;-84
2022/06/19 07:43:27;;;;;;;17.83;3.85;;;;;;;;;;4944385;29;20185;-84
2022/06/19 07:46:32;;;;;;;16.92;3.67;;;;;;;;;;4954322;29;20197;-84
2022/06/19 07:52:58;;;;;;;19.83;4.07;;;;;;;;;;4955299;29;20188;-84
2022/06/19 07:56:03;;;;;;;23.55;4.88;;;;;;;;;;4954255;29;20205;-84
2022/06/19 07:59:07;;;;;;;12.60;3.28;;;;;;;;;;4943439;29;20555;-84
2022/06/19 08:02:11;;;;;;;21.35;4.32;;;;;;;;;;4954833;29;20180;-85
2022/06/19 08:05:17;;;;;;;14.85;3.80;;;;;;;;;;4932556;29;20516;-91
2022/06/19 08:08:27;;;;;;;12.73;3.80;;;;;;;;;;4943145;29;20557;-86
2022/06/19 08:11:31;;;;;;;15.75;3.88;;;;;;;;;;4966296;28;20223;-85
2022/06/19 08:14:36;;;;;;;15.23;3.75;;;;;;;;;;4946509;29;20191;-85
2022/06/19 08:17:40;;;;;;;12.68;4.03;;;;;;;;;;4946866;29;20188;-84
2022/06/19 08:20:44;;;;;;;15.57;3.65;;;;;;;;;;4969088;28;20231;-85
2022/06/19 08:23:49;;;;;;;13.02;3.83;;;;;;;;;;4944426;29;20674;-84
2022/06/19 08:27:12;;;;;;;18.90;4.13;;;;;;;;;;4962843;28;20187;-84
2022/06/19 08:30:20;;;;;;;15.57;3.95;;;;;;;;;;4956846;28;20228;-84
2022/06/19 08:33:24;;;;;;;10.75;3.22;;;;;;;;;;4954183;29;20188;-84
2022/06/19 08:36:33;;;;;;;12.05;3.95;;;;;;;;;;4946250;29;20191;-85
2022/06/19 08:39:37;;;;;;;17.52;4.05;;;;;;;;;;4945984;28;20647;-85
2022/06/19 08:43:08;;;;;;;15.52;4.10;;;;;;;;;;4935021;29;20184;-85
2022/06/19 08:46:21;;;;;;;10.82;3.50;;;;;;;;;;4959872;28;20188;-85
2022/06/19 08:49:25;;;;;;;15.75;4.20;;;;;;;;;;4956470;29;20251;-85
2022/06/19 08:52:39;;;;;;;14.80;4.00;;;;;;;;;;4934789;29;20188;-85
2022/06/19 08:56:05;;;;;;;18.25;3.97;;;;;;;;;;4945912;29;20230;-85
2022/06/19 08:59:25;;;;;;;11.88;3.63;;;;;;;;;;4943108;29;20188;-85
2022/06/19 09:02:35;;;;;;;15.93;3.88;;;;;;;;;;4956594;29;20196;-85
2022/06/19 09:05:50;;;;;;;15.25;4.32;;;;;;;;;;4961867;28;20192;-86
2022/06/19 09:09:25;;;;;;;16.42;3.88;;;;;;;;;;4960742;28;20212;-86
2022/06/19 09:12:41;;;;;;;21.63;3.92;;;;;;;;;;4945336;29;20196;-86
2022/06/19 09:16:14;;;;;;;12.65;3.30;;;;;;;;;;4945153;29;20184;-89
2022/06/19 09:19:33;;;;;;;18.85;3.53;;;;;;;;;;4955109;29;20184;-86
2022/06/19 09:23:11;;;;;;;13.80;3.70;;;;;;;;;;4944715;29;20188;-86
2022/06/19 09:26:26;;;;;;;18.02;4.00;;;;;;;;;;4943618;29;20187;-86
2022/06/19 09:30:16;;;;;;;15.00;3.67;;;;;;;;;;4965429;28;20583;-86
2022/06/19 09:33:32;;;;;;;14.82;4.25;;;;;;;;;;4960611;28;20733;-86
2022/06/19 09:36:51;;;;;;;14.18;3.67;;;;;;;;;;4960331;28;20196;-86
2022/06/19 09:40:48;;;;;;;16.27;4.07;;;;;;;;;;4956261;28;20223;-85
2022/06/19 09:44:01;;;;;;;16.25;3.90;;;;;;;;;;4944307;29;20204;-86
2022/06/19 09:47:14;;;;;;;16.13;4.18;;;;;;;;;;4944941;29;20188;-91
2022/06/19 09:50:29;;;;;;;18.17;4.40;;;;;;;;;;4961696;28;20591;-86
2022/06/19 09:53:45;;;;;;;13.60;3.78;;;;;;;;;;4971401;28;20595;-86
2022/06/19 09:57:06;;;;;;;16.40;4.32;;;;;;;;;;4955711;29;20192;-86
2022/06/19 10:00:23;;;;;;;13.40;4.13;;;;;;;;;;4932777;28;20219;-86
2022/06/19 10:03:38;;;;;;;14.82;3.83;;;;;;;;;;4967012;28;20679;-85
2022/06/19 10:06:47;;;;;;;16.17;4.82;;;;;;;;;;4946341;29;20179;-86
2022/06/19 10:09:57;;;;;;;12.95;4.38;;;;;;;;;;4991430;22;20215;31
2022/06/19 10:13:08;;;;;;;12.90;3.95;;;;;;;;;;4984528;28;20218;-88
2022/06/19 10:16:44;;;;;;;14.38;4.55;;;;;;;;;;4997692;28;20187;-88
2022/06/19 10:20:29;;;;;;;17.90;4.57;;;;;;;;;;4985693;28;20206;-88
2022/06/19 10:23:46;;;;;;;18.05;4.53;;;;;;;;;;4969515;28;20203;-88
2022/06/19 10:27:16;;;;;;;17.73;4.82;;;;;;;;;;4986814;28;20183;-88
2022/06/19 10:30:48;;;;;;;13.23;5.00;;;;;;;;;;4975625;28;20230;-87
2022/06/19 10:34:13;;;;;;;16.60;4.40;;;;;;;;;;4973912;28;20186;-87
2022/06/19 10:37:45;;;;;;;16.92;5.57;;;;;;;;;;4986447;28;20183;-87
2022/06/19 10:41:04;;;;;;;20.17;4.70;;;;;;;;;;4974438;28;20226;-87
2022/06/19 10:44:08;;;;;;;15.50;4.57;;;;;;;;;;4944853;29;20528;-87
2022/06/19 10:47:21;;;;;;;19.55;4.70;;;;;;;;;;4961551;28;20560;-87
2022/06/19 10:50:45;;;;;;;18.83;5.32;;;;;;;;;;4974767;28;20214;-87
2022/06/19 10:54:29;;;;;;;12.23;4.63;;;;;;;;;;4974043;28;20202;-87
2022/06/19 10:58:05;;;;;;;13.15;5.18;;;;;;;;;;4974549;28;20183;-88
2022/06/19 11:04:06;;;;;;;14.50;4.80;;;;;;;;;;4962928;28;20255;-88
2022/06/19 11:04:39;;;;;;;15.93;4.97;;;;;;;;;;4974499;28;20206;-87
2022/06/19 11:07:43;;;;;;;15.20;5.05;;;;;;;;;;4973992;28;20552;-88
2022/06/19 11:10:52;;;;;;;15.13;5.05;;;;;;;;;;4963234;28;20230;-87
2022/06/19 11:14:03;;;;;;;12.38;5.57;;;;;;;;;;4974004;28;20190;-86
2022/06/19 11:17:14;;;;;;;12.93;4.80;;;;;;;;;;4963306;28;20178;-86
2022/06/19 11:20:27;;;;;;;17.13;5.00;;;;;;;;;;4962844;28;20578;-87
2022/06/19 11:23:34;;;;;;;19.15;5.75;;;;;;;;;;4964325;28;20190;-86
2022/06/19 11:26:45;;;;;;;17.10;5.88;;;;;;;;;;4975159;28;20198;-86
2022/06/19 11:29:51;;;;;;;15.35;5.03;;;;;;;;;;4973728;28;20194;-86
2022/06/19 11:32:56;;;;;;;13.82;5.40;;;;;;;;;;4985983;28;20179;-86
2022/06/19 11:36:02;;;;;;;15.52;5.28;;;;;;;;;;4985845;28;20528;-86
2022/06/19 11:39:34;;;;;;;13.95;5.25;;;;;;;;;;4963133;28;20190;-86
2022/06/19 11:42:54;;;;;;;22.65;5.50;;;;;;;;;;4970847;28;20186;-86
2022/06/19 11:46:13;;;;;;;16.40;5.60;;;;;;;;;;4977470;28;20187;-86
2022/06/19 11:49:25;;;;;;;15.13;5.00;;;;;;;;;;4967690;28;20190;-87
2022/06/19 11:52:30;;;;;;;18.45;5.38;;;;;;;;;;4977801;28;20182;-86
2022/06/19 11:55:37;;;;;;;19.60;5.20;;;;;;;;;;4977600;28;20198;-87
2022/06/19 11:58:51;;;;;;;12.82;5.72;;;;;;;;;;4977226;28;20546;-86
2022/06/19 12:01:55;;;;;;;15.50;5.97;;;;;;;;;;4962467;28;20214;-86
2022/06/19 12:05:04;;;;;;;19.25;6.20;;;;;;;;;;4970105;28;20210;-86
2022/06/19 12:08:17;;;;;;;12.18;5.18;;;;;;;;;;4968530;28;20195;-86
2022/06/19 12:11:38;;;;;;;18.38;5.72;;;;;;;;;;4977143;28;20222;-89
2022/06/19 12:14:45;;;;;;;15.30;4.97;;;;;;;;;;4977609;28;20183;-86
2022/06/19 12:17:57;;;;;;;13.55;5.63;;;;;;;;;;4977857;28;20194;-86
2022/06/19 12:21:32;;;;;;;14.63;5.57;;;;;;;;;;4966549;28;20701;-86
2022/06/19 12:25:04;;;;;;;11.20;5.13;;;;;;;;;;4977293;28;20179;-86
2022/06/19 12:28:40;;;;;;;12.50;5.35;;;;;;;;;;4977442;28;20645;-86
2022/06/19 12:31:45;;;;;;;16.90;5.90;;;;;;;;;;4975397;28;20226;-86
2022/06/19 12:34:53;;;;;;;13.35;5.18;;;;;;;;;;4965633;28;20206;-86
2022/06/19 12:37:58;;;;;;;12.98;5.13;;;;;;;;;;4965985;28;20178;-86
2022/06/19 12:41:11;;;;;;;13.45;5.70;;;;;;;;;;4969638;28;20226;-86
2022/06/19 12:44:32;;;;;;;16.52;6.18;;;;;;;;;;4955653;29;20195;-86
2022/06/19 12:47:36;;;;;;;18.23;5.72;;;;;;;;;;4960584;29;20199;-86
2022/06/19 12:50:57;;;;;;;20.50;5.97;;;;;;;;;;4938759;29;20227;-86
2022/06/19 12:54:38;;;;;;;16.48;5.88;;;;;;;;;;4957258;28;20199;-87
2022/06/19 12:58:09;;;;;;;14.73;6.25;;;;;;;;;;4967774;28;20623;-86
2022/06/19 13:01:45;;;;;;;14.40;6.07;;;;;;;;;;4938120;29;20227;-86
2022/06/19 13:05:14;;;;;;;12.90;5.70;;;;;;;;;;4937817;29;20204;-86
2022/06/19 13:08:30;;;;;;;17.90;6.28;;;;;;;;;;4949386;29;20543;-87
2022/06/19 13:11:57;;;;;;;13.32;5.40;;;;;;;;;;4956396;28;20231;-87
2022/06/19 13:15:39;;;;;;;20.75;6.13;;;;;;;;;;4957761;29;20196;-86
2022/06/19 13:19:08;;;;;;;15.48;5.95;;;;;;;;;;4968016;28;20184;-86
2022/06/19 13:22:43;;;;;;;16.50;5.88;;;;;;;;;;4957566;29;20215;-86
2022/06/19 13:30:22;;;;;;;15.60;5.95;;;;;;;;;;4956651;29;20204;-86
2022/06/19 13:33:42;;;;;;;12.32;5.82;;;;;;;;;;4943523;29;20196;-86
2022/06/19 13:37:12;;;;;;;12.88;6.15;;;;;;;;;;4949248;28;20197;-86
2022/06/19 13:40:31;;;;;;;15.95;6.25;;;;;;;;;;4942967;29;20730;-86
2022/06/19 13:43:55;;;;;;;12.95;6.30;;;;;;;;;;4945820;29;20200;-86
2022/06/19 13:47:19;;;;;;;18.10;6.60;;;;;;;;;;4941296;29;20655;-86
2022/06/19 13:50:35;;;;;;;18.27;6.25;;;;;;;;;;4948702;29;20216;-86
2022/06/19 13:53:51;;;;;;;15.05;6.13;;;;;;;;;;4938085;29;20181;-86
2022/06/19 13:57:20;;;;;;;20.88;5.75;;;;;;;;;;4937642;29;20188;-86
2022/06/19 14:00:39;;;;;;;14.55;6.20;;;;;;;;;;4949451;29;20683;-85
2022/06/19 14:07:43;;;;;;;10.95;6.00;;;;;;;;;;4945449;29;20202;-86
2022/06/19 14:10:54;;;;;;;13.35;6.07;;;;;;;;;;4959395;28;20215;-87
2022/06/19 14:14:04;;;;;;;13.88;6.13;;;;;;;;;;4947737;29;20196;-86
2022/06/19 14:17:19;;;;;;;14.30;6.60;;;;;;;;;;4968694;28;20234;-86
2022/06/19 14:20:54;;;;;;;12.48;5.72;;;;;;;;;;4972214;28;20703;-86
2022/06/19 14:23:58;;;;;;;13.63;6.10;;;;;;;;;;4967697;28;20187;-86
2022/06/19 14:27:15;;;;;;;13.32;5.97;;;;;;;;;;4987777;28;20186;-86
2022/06/19 14:30:21;;;;;;;16.88;6.20;;;;;;;;;;4953379;28;20564;-86
2022/06/19 14:33:40;;;;;;;13.25;6.20;;;;;;;;;;4975339;28;20205;-86
2022/06/19 14:36:44;;;;;;;11.23;6.20;;;;;;;;;;4976293;28;20179;-87
2022/06/19 14:39:49;;;;;;;15.77;6.25;;;;;;;;;;4975861;28;20204;-87
2022/06/19 14:42:58;;;;;;;11.45;6.35;;;;;;;;;;4987426;28;20190;-86
2022/06/19 14:46:02;;;;;;;10.38;6.68;;;;;;;;;;4963689;28;20187;-86
2022/06/19 14:49:34;;;;;;;20.17;6.30;;;;;;;;;;4963291;28;20187;-86
2022/06/19 14:52:57;;;;;;;14.07;6.40;;;;;;;;;;4963436;28;20552;-86
2022/06/19 14:56:29;;;;;;;13.43;6.18;;;;;;;;;;4974529;28;20533;-86
2022/06/19 14:59:50;;;;;;;14.30;6.43;;;;;;;;;;4974359;28;20183;-87
2022/06/19 15:03:03;;;;;;;17.52;6.30;;;;;;;;;;4954420;28;20187;-87
2022/06/19 15:06:20;;;;;;;14.13;6.40;;;;;;;;;;4963503;28;20187;-86
2022/06/19 15:09:44;;;;;;;12.85;6.00;;;;;;;;;;4974792;28;20519;-87
2022/06/19 15:13:02;;;;;;;15.55;6.03;;;;;;;;;;4957394;28;20188;-86
2022/06/19 15:16:22;;;;;;;14.10;6.13;;;;;;;;;;4976497;28;20665;-87
2022/06/19 15:19:42;;;;;;;12.38;6.00;;;;;;;;;;4967430;28;20195;-85
2022/06/19 15:23:28;;;;;;;14.57;6.07;;;;;;;;;;4954469;29;20647;-85
2022/06/19 15:26:39;;;;;;;13.73;6.32;;;;;;;;;;4960717;28;20538;-85
2022/06/19 15:29:57;;;;;;;15.82;6.45;;;;;;;;;;4971463;28;20183;-85
2022/06/19 15:33:37;;;;;;;10.88;6.00;;;;;;;;;;4963872;28;20191;-85
2022/06/19 15:36:51;;;;;;;18.60;5.93;;;;;;;;;;4969188;28;20187;-85
2022/06/19 15:40:13;;;;;;;13.98;6.07;;;;;;;;;;4970340;28;20747;-85
2022/06/19 15:43:17;;;;;;;11.18;6.18;;;;;;;;;;4973789;28;20179;-85
2022/06/19 15:46:26;;;;;;;15.82;6.53;;;;;;;;;;4958923;28;20203;-85
2022/06/19 15:49:35;;;;;;;17.27;6.88;;;;;;;;;;4968608;28;20187;-85
2022/06/19 15:52:47;;;;;;;14.30;6.30;;;;;;;;;;4962563;28;20176;-85
2022/06/19 15:56:05;;;;;;;15.27;6.60;;;;;;;;;;4973056;28;20187;-84
2022/06/19 15:59:16;;;;;;;14.32;7.13;;;;;;;;;;4968238;28;20195;-85
2022/06/19 16:02:28;;;;;;;14.48;5.68;;;;;;;;;;4973114;28;20235;-85
2022/06/19 16:05:39;;;;;;;19.08;6.43;;;;;;;;;;4972844;28;20195;-85
2022/06/19 16:08:54;;;;;;;16.65;6.40;;;;;;;;;;4959861;28;20199;-85
2022/06/19 16:12:04;;;;;;;14.15;5.97;;;;;;;;;;5029679;23;20605;-84
2022/06/19 16:15:17;;;;;;;15.05;5.90;;;;;;;;;;5001721;28;20661;-86
2022/06/19 16:18:23;;;;;;;11.50;5.97;;;;;;;;;;4990644;28;20202;-86
2022/06/19 16:21:29;;;;;;;13.88;5.88;;;;;;;;;;5012983;28;20222;-86
2022/06/19 16:24:53;;;;;;;18.73;6.00;;;;;;;;;;4995107;28;20190;-86
2022/06/19 16:28:00;;;;;;;16.02;5.90;;;;;;;;;;4971392;28;20182;-87
2022/06/19 16:31:18;;;;;;;14.60;5.45;;;;;;;;;;4987139;28;20193;-85
2022/06/19 16:34:29;;;;;;;18.38;5.63;;;;;;;;;;4993144;28;20202;-85
2022/06/19 16:44:27;;;;;;;18.45;5.47;;;;;;;;;;5004205;28;20198;-85
2022/06/19 16:47:31;;;;;;;17.70;5.70;;;;;;;;;;4987538;28;20183;-85
2022/06/19 16:51:06;;;;;;;18.52;5.88;;;;;;;;;;5002959;28;20194;-85
2022/06/19 16:54:12;;;;;;;16.38;5.55;;;;;;;;;;4996781;28;20179;-85
2022/06/19 16:57:29;;;;;;;13.43;5.18;;;;;;;;;;4996052;28;20517;-85
2022/06/19 17:00:46;;;;;;;13.25;5.68;;;;;;;;;;4973923;28;20538;-84
2022/06/19 17:03:54;;;;;;;16.13;5.72;;;;;;;;;;4993013;28;20202;-85
2022/06/19 17:07:01;;;;;;;15.40;5.28;;;;;;;;;;4989278;28;20546;-85
2022/06/19 17:10:07;;;;;;;13.38;5.55;;;;;;;;;;4973431;28;20198;-85
2022/06/19 17:13:16;;;;;;;13.95;5.88;;;;;;;;;;4966438;28;20226;-85
2022/06/19 17:16:20;;;;;;;17.65;5.03;;;;;;;;;;4995290;28;20194;-84
2022/06/19 17:19:28;;;;;;;13.85;4.90;;;;;;;;;;4976088;28;20553;-84
2022/06/19 17:22:36;;;;;;;15.43;5.68;;;;;;;;;;4973975;28;20234;-84
2022/06/19 17:25:45;;;;;;;15.50;5.15;;;;;;;;;;4993555;28;20560;-84
2022/06/19 17:28:55;;;;;;;16.98;5.45;;;;;;;;;;5015654;28;20198;-85
2022/06/19 17:31:59;;;;;;;12.05;5.22;;;;;;;;;;4986376;28;20211;-84
2022/06/19 17:35:24;;;;;;;16.67;5.05;;;;;;;;;;4996342;28;20194;-85
2022/06/19 17:38:34;;;;;;;16.00;5.32;;;;;;;;;;4973956;28;20179;-84
2022/06/19 17:41:47;;;;;;;14.25;5.30;;;;;;;;;;4983882;28;20222;-85
2022/06/19 17:44:59;;;;;;;21.20;6.07;;;;;;;;;;4972221;28;20251;-85
2022/06/19 17:48:04;;;;;;;18.48;6.45;;;;;;;;;;4983884;28;20707;-85
2022/06/19 17:51:42;;;;;;;18.67;5.18;;;;;;;;;;4995091;28;20178;-85
2022/06/19 17:54:53;;;;;;;15.48;5.65;;;;;;;;;;4973044;28;20183;-85
2022/06/19 17:58:02;;;;;;;13.05;5.30;;;;;;;;;;4984080;28;20194;-85
2022/06/19 18:01:17;;;;;;;23.13;5.53;;;;;;;;;;4988356;28;20649;-85
2022/06/19 18:04:29;;;;;;;11.90;5.03;;;;;;;;;;5003825;28;20206;-85
2022/06/19 18:07:45;;;;;;;12.65;5.13;;;;;;;;;;4994413;28;20202;-85
2022/06/19 18:10:57;;;;;;;12.32;5.13;;;;;;;;;;4969686;28;20190;-85
2022/06/19 18:14:10;;;;;;;12.73;5.47;;;;;;;;;;4971470;28;20178;-85
2022/06/19 18:20:37;;;;;;;10.80;5.63;;;;;;;;;;5009939;28;20195;-85
2022/06/19 18:23:43;;;;;;;10.00;4.75;;;;;;;;;;4973067;28;20197;-84
2022/06/19 18:26:51;;;;;;;11.77;5.13;;;;;;;;;;4982706;28;20659;-84
2022/06/19 18:30:00;;;;;;;10.73;5.35;;;;;;;;;;4983154;28;20682;-85
2022/06/19 18:33:04;;;;;;;14.75;5.32;;;;;;;;;;4971609;28;20212;-85
2022/06/19 18:36:12;;;;;;;22.65;5.90;;;;;;;;;;4973352;28;20181;-84
2022/06/19 18:39:22;;;;;;;19.25;6.13;;;;;;;;;;5002346;28;20181;-84
2022/06/19 18:42:27;;;;;;;16.90;6.38;;;;;;;;;;5002246;28;20229;-84
2022/06/19 18:45:31;;;;;;;14.85;5.95;;;;;;;;;;5002624;28;20200;-84
2022/06/19 18:48:35;;;;;;;16.33;6.45;;;;;;;;;;4994629;28;20211;-84
2022/06/19 18:51:39;;;;;;;14.50;6.20;;;;;;;;;;4993810;28;20213;-84
2022/06/19 18:54:45;;;;;;;12.95;6.38;;;;;;;;;;4962941;28;20177;-84
2022/06/19 18:57:49;;;;;;;16.40;7.38;;;;;;;;;;4962953;28;20648;-84
2022/06/19 19:00:55;;;;;;;17.58;6.82;;;;;;;;;;4969821;28;20199;-85
2022/06/19 19:03:59;;;;;;;14.88;6.53;;;;;;;;;;4998058;28;20189;-84
2022/06/19 19:07:07;;;;;;;14.80;6.75;;;;;;;;;;4973041;28;20207;-84
2022/06/19 19:10:18;;;;;;;16.10;6.50;;;;;;;;;;4994582;28;20179;-84
2022/06/19 19:13:41;;;;;;;17.20;7.28;;;;;;;;;;4977119;28;20230;-84
2022/06/19 19:16:45;;;;;;;21.10;7.85;;;;;;;;;;4990048;28;20195;-84